Dyer, Nevada
Current Conditions -  °F | °C
As of 3:56 PM on Sunday 23 Nov 2014 (Local Time) from KBIH Reporting Station
Broken Clouds Broken Clouds  
Wind Chill: 60°   Ceiling: 12000
Heat Index: 60°   Visibility: 10mi
Dew Point: -5°   Wind: 5mph
Humidity: 7%   Direction: 160°SSE
Pressure: 30.19"   Gusts: NA
Location:  37.68°N, 118.08°W
Report Text: KBIH 232356Z AUTO 16004KT 10SM BKN120 16/M21 A3019 RMK AO2 SLP203 T01561206 10167 20117 55013
Loading
Personal Weather Stations






























Interactive Weather Map New forecast layout! Learn more

10-Day Weather Forecast

Advertisements
Track Severe Weather on mobile